Snav Lazio — IBUH — position and weather

sailwx.info

Track history (hours):
 
Tides and Currents Weather Stations Pressure Air Temp Water Temp Dewpoint Dewpoint Depression Visibility Wind Speed Wind Dir Waves Ship Positions

Snav Lazio

Last reported at 2016-Jul-25 04:33 UTC. Time now 2016-Jul-25 06:13 UTC.
Position N 38°08' E 013°24'.

Length 162 m; draft 6 m.

Type: Passenger vessel. MMSI: 247163100.

Date/timePositionNaut miles runAvg speedWind from/ knotsBaromVisibWave heightAir tempDewpointWater temp
2016-Jul-25 04:33N 38°08' E 013°24'1615.9
2016-Jul-25 03:33N 38°23' E 013°29'1716.6
2016-Jul-25 02:33N 38°39' E 013°34'6817.0
2016-Jul-24 22:33N 39°45' E 013°53'3316.4
2016-Jul-24 20:33N 40°17' E 014°02'1716.2
2016-Jul-24 19:30N 40°34' E 014°08'17 7.3
2016-Jul-24 17:08N 40°50' E 014°16'0 0.0
2016-Jul-24 16:32N 40°50' E 014°16'10 0.8
2016-Jul-24 04:33N 40°41' E 014°12'1818.2
2016-Jul-24 03:33N 40°24' E 014°04'1818.1
2016-Jul-24 02:33N 40°06' E 013°59'1818.4
2016-Jul-24 01:33N 39°48' E 013°54'1818.4
2016-Jul-24 00:33N 39°30' E 013°49'1818.3
2016-Jul-23 23:33N 39°13' E 013°43'1818.4
2016-Jul-23 22:33N 38°55' E 013°38'1818.4
2016-Jul-23 21:33N 38°37' E 013°32'1717.5
2016-Jul-23 20:34N 38°20' E 013°28'1312.6
2016-Jul-23 19:33N 38°08' E 013°22'0 0.2
2016-Jul-23 18:34N 38°08' E 013°22'0 0.0
2016-Jul-23 17:33N 38°08' E 013°22'3 2.7
2016-Jul-23 16:34N 38°10' E 013°25'1817.5
2016-Jul-23 15:33N 38°27' E 013°30'1817.9
2016-Jul-23 14:33N 38°44' E 013°35'1818.0
2016-Jul-23 13:33N 39°02' E 013°40'1818.1
2016-Jul-23 12:33N 39°19' E 013°45'1818.0
2016-Jul-23 11:33N 39°37' E 013°50'1817.9
2016-Jul-23 10:33N 39°54' E 013°56'1817.7
2016-Jul-23 09:33N 40°12' E 014°01'1817.9
2016-Jul-23 08:33N 40°29' E 014°06'1817.9
2016-Jul-23 07:33N 40°46' E 014°15'5 4.4
2016-Jul-23 06:28N 40°50' E 014°16'0 0.0
2016-Jul-23 04:20N 40°50' E 014°16'3 3.4
2016-Jul-23 03:33N 40°48' E 014°17'1716.6
2016-Jul-23 02:33N 40°33' E 014°08'1818.0
2016-Jul-23 01:33N 40°15' E 014°02'1818.0
2016-Jul-23 00:33N 39°58' E 013°57'1818.1
2016-Jul-22 23:33N 39°40' E 013°52'1818.2
2016-Jul-22 22:33N 39°22' E 013°47'1818.2
2016-Jul-22 21:34N 39°04' E 013°42'1818.2
2016-Jul-22 20:33N 38°47' E 013°36'1818.4
2016-Jul-22 19:34N 38°29' E 013°31'1918.5
2016-Jul-22 18:34N 38°11' E 013°26'4 4.3
2016-Jul-22 17:32N 38°08' E 013°22'0 0.0
2016-Jul-22 16:32N 38°08' E 013°22'0 0.0
2016-Jul-22 15:29N 38°08' E 013°22'0 0.0
2016-Jul-22 14:32N 38°08' E 013°22'0 0.0
2016-Jul-22 13:26N 38°08' E 013°22'0 0.0
2016-Jul-22 12:29N 38°08' E 013°22'0 0.0
2016-Jul-22 11:29N 38°08' E 013°22'0 0.0
2016-Jul-22 10:32N 38°08' E 013°22'0 0.0
2016-Jul-22 09:33N 38°08' E 013°22'0 0.0
2016-Jul-22 08:33N 38°08' E 013°22'0 0.0
2016-Jul-22 07:33N 38°08' E 013°22'0 0.0
2016-Jul-22 05:33N 38°08' E 013°22'0 0.1
2016-Jul-22 04:33N 38°08' E 013°22'9 8.9
2016-Jul-22 03:33N 38°16' E 013°27'1817.8
2016-Jul-22 02:33N 38°33' E 013°31'1817.8
2016-Jul-22 01:33N 38°51' E 013°37'1817.9
2016-Jul-22 00:33N 39°08' E 013°42'1817.8
2016-Jul-21 23:33N 39°25' E 013°47'1817.8
2016-Jul-21 22:33N 39°43' E 013°53'1817.7
2016-Jul-21 21:34N 40°00' E 013°57'1817.8
2016-Jul-21 20:34N 40°17' E 014°03'1818.0
2016-Jul-21 19:34N 40°35' E 014°08'1616.4
2016-Jul-21 18:34N 40°50' E 014°17'1 0.7
2016-Jul-21 17:11N 40°50' E 014°16'0 0.0
2016-Jul-21 16:26N 40°50' E 014°16'0 0.0
2016-Jul-21 15:32N 40°50' E 014°16'0 0.0
2016-Jul-21 14:32N 40°50' E 014°16'0 0.0
2016-Jul-21 13:32N 40°50' E 014°16'0 0.0
2016-Jul-21 12:29N 40°50' E 014°16'0 0.0
2016-Jul-21 11:20N 40°50' E 014°16'0 0.0
2016-Jul-21 10:32N 40°50' E 014°16'0 0.0
2016-Jul-21 09:17N 40°50' E 014°16'0 0.0
2016-Jul-21 08:32N 40°50' E 014°16'0 0.0
2016-Jul-21 07:32N 40°50' E 014°16'0 0.0
2016-Jul-21 06:32N 40°50' E 014°16'6 1.9
2016-Jul-21 03:34N 40°45' E 014°14'1817.6
2016-Jul-21 02:34N 40°28' E 014°06'1817.6
2016-Jul-21 01:34N 40°11' E 014°01'1818.2
2016-Jul-21 00:34N 39°53' E 013°55'1818.0
2016-Jul-20 23:34N 39°36' E 013°50'2517.8
2016-Jul-20 22:10N 39°12' E 013°44'1118.1
2016-Jul-20 21:33N 39°01' E 013°41'1818.0
2016-Jul-20 20:33N 38°43' E 013°36'1817.6
2016-Jul-20 19:33N 38°26' E 013°31'1817.8
2016-Jul-20 18:33N 38°09' E 013°25'3 2.7
2016-Jul-20 17:28N 38°08' E 013°22'0 0.0
2016-Jul-20 16:28N 38°08' E 013°22'0 0.0
2016-Jul-20 15:31N 38°08' E 013°22'0 0.0
2016-Jul-20 14:31N 38°08' E 013°22'0 0.0
2016-Jul-20 13:28N 38°08' E 013°22'0 0.0
2016-Jul-20 12:28N 38°08' E 013°22'0 0.0
2016-Jul-20 11:31N 38°08' E 013°22'0 0.0
2016-Jul-20 10:31N 38°08' E 013°22'0 0.0
2016-Jul-20 09:31N 38°08' E 013°22'0 0.0
2016-Jul-20 08:31N 38°08' E 013°22'0 0.0
2016-Jul-20 07:31N 38°08' E 013°22'0 0.0
2016-Jul-20 06:31N 38°08' E 013°22'0 0.0
2016-Jul-20 05:31N 38°08' E 013°22'2 2.5
2016-Jul-20 04:33N 38°09' E 013°24'1615.7
2016-Jul-20 03:33N 38°25' E 013°29'1616.2
2016-Jul-20 02:33N 38°41' E 013°34'1615.8
2016-Jul-20 01:33N 38°56' E 013°38'1616.1
2016-Jul-20 00:34N 39°12' E 013°43'1616.2
2016-Jul-19 23:34N 39°27' E 013°48'1616.2
2016-Jul-19 22:33N 39°43' E 013°53'1716.6
2016-Jul-19 21:34N 39°59' E 013°57'1716.9
2016-Jul-19 20:34N 40°16' E 014°02'1717.0
2016-Jul-19 19:34N 40°32' E 014°07'1717.1
2016-Jul-19 18:33N 40°48' E 014°16'2 0.2
2016-Jul-19 08:03N 40°50' E 014°16'10 2.8
2016-Jul-19 04:33N 40°41' E 014°12'1616.2
2016-Jul-19 03:33N 40°26' E 014°05'1616.1
2016-Jul-19 02:33N 40°10' E 014°00'1615.8
2016-Jul-19 01:34N 39°55' E 013°56'1615.7
2016-Jul-19 00:33N 39°39' E 013°52'1615.6
2016-Jul-18 23:33N 39°24' E 013°47'4815.7
2016-Jul-18 20:31N 38°37' E 013°34'1616.4
2016-Jul-18 19:33N 38°22' E 013°30'1515.3
2016-Jul-18 18:33N 38°07' E 013°24'2 1.6
2016-Jul-18 17:32N 38°08' E 013°22'0 0.0
2016-Jul-18 16:32N 38°08' E 013°22'0 0.0
2016-Jul-18 15:32N 38°08' E 013°22'0 0.0
2016-Jul-18 14:32N 38°08' E 013°22'0 0.0
2016-Jul-18 13:32N 38°08' E 013°22'0 0.0
2016-Jul-18 12:32N 38°08' E 013°22'0 0.0
2016-Jul-18 11:32N 38°08' E 013°22'0 0.0
2016-Jul-18 10:32N 38°08' E 013°22'0 0.0
2016-Jul-18 09:32N 38°08' E 013°22'0 0.0
2016-Jul-18 08:32N 38°08' E 013°22'0 0.0
2016-Jul-18 07:32N 38°08' E 013°22'0 0.0
2016-Jul-18 06:32N 38°08' E 013°22'0 0.0
2016-Jul-18 05:32N 38°08' E 013°22'1 0.7
2016-Jul-18 04:33N 38°08' E 013°22'1212.2
2016-Jul-18 03:33N 38°19' E 013°27'1717.0
2016-Jul-18 02:33N 38°36' E 013°32'4117.0
2016-Jul-18 00:09N 39°16' E 013°44'6316.7
2016-Jul-17 20:24N 40°16' E 014°03'1517.2
2016-Jul-17 19:33N 40°31' E 014°07'1717.1
2016-Jul-17 18:33N 40°46' E 014°16'12 0.8
2016-Jul-17 04:33N 40°36' E 014°10'1615.9
2016-Jul-17 03:33N 40°21' E 014°04'10815.5
2016-Jul-16 20:33N 38°35' E 013°33'1110.8
2016-Jul-16 19:32N 38°24' E 013°30'1515.3
2016-Jul-16 18:33N 38°10' E 013°26'3 3.4
2016-Jul-16 17:33N 38°08' E 013°22'0 0.0
2016-Jul-16 16:30N 38°08' E 013°22'0 0.0
2016-Jul-16 15:33N 38°08' E 013°22'0 0.0
2016-Jul-16 14:19N 38°08' E 013°22'0 0.0
2016-Jul-16 13:25N 38°08' E 013°22'0 0.0
2016-Jul-16 12:25N 38°08' E 013°22'0 0.0
2016-Jul-16 11:25N 38°08' E 013°22'0 0.0
2016-Jul-16 10:28N 38°08' E 013°22'0 0.0
2016-Jul-16 09:25N 38°08' E 013°22'0 0.0
2016-Jul-16 08:31N 38°08' E 013°22'0 0.0
2016-Jul-16 07:31N 38°08' E 013°22'2 2.5
2016-Jul-16 06:33N 38°09' E 013°25'12615.3
2016-Jul-15 22:17N 40°15' E 013°43'1216.1
2016-Jul-15 21:33N 40°24' E 013°52'1313.0
2016-Jul-15 20:33N 40°35' E 014°02'1413.8
2016-Jul-15 19:33N 40°45' E 014°13'4 0.3
2016-Jul-15 05:33N 40°48' E 014°17'1616.1
2016-Jul-15 04:33N 40°33' E 014°09'  
Track history (hours):
 
Tides and Currents Weather Stations Pressure Air Temp Water Temp Dewpoint Dewpoint Depression Visibility Wind Speed Wind Dir Waves Ship Positions

Snav Lazio

Last reported at 2016-Jul-25 04:33 UTC. Time now 2016-Jul-25 06:13 UTC.
Position N 38°08' E 013°24'.

Length 162 m; draft 6 m.

Type: Passenger vessel. MMSI: 247163100.

Date/timePositionNaut miles runAvg speedWind from/ knotsBaromVisibWave heightAir tempDewpointWater temp
2016-Jul-25 04:33N 38°08' E 013°24'1615.9
2016-Jul-25 03:33N 38°23' E 013°29'1716.6
2016-Jul-25 02:33N 38°39' E 013°34'6817.0
2016-Jul-24 22:33N 39°45' E 013°53'3316.4
2016-Jul-24 20:33N 40°17' E 014°02'1716.2
2016-Jul-24 19:30N 40°34' E 014°08'17 7.3
2016-Jul-24 17:08N 40°50' E 014°16'0 0.0
2016-Jul-24 16:32N 40°50' E 014°16'10 0.8
2016-Jul-24 04:33N 40°41' E 014°12'1818.2
2016-Jul-24 03:33N 40°24' E 014°04'1818.1
2016-Jul-24 02:33N 40°06' E 013°59'1818.4
2016-Jul-24 01:33N 39°48' E 013°54'1818.4
2016-Jul-24 00:33N 39°30' E 013°49'1818.3
2016-Jul-23 23:33N 39°13' E 013°43'1818.4
2016-Jul-23 22:33N 38°55' E 013°38'1818.4
2016-Jul-23 21:33N 38°37' E 013°32'1717.5
2016-Jul-23 20:34N 38°20' E 013°28'1312.6
2016-Jul-23 19:33N 38°08' E 013°22'0 0.2
2016-Jul-23 18:34N 38°08' E 013°22'0 0.0
2016-Jul-23 17:33N 38°08' E 013°22'3 2.7
2016-Jul-23 16:34N 38°10' E 013°25'1817.5
2016-Jul-23 15:33N 38°27' E 013°30'1817.9
2016-Jul-23 14:33N 38°44' E 013°35'1818.0
2016-Jul-23 13:33N 39°02' E 013°40'1818.1
2016-Jul-23 12:33N 39°19' E 013°45'1818.0
2016-Jul-23 11:33N 39°37' E 013°50'1817.9
2016-Jul-23 10:33N 39°54' E 013°56'1817.7
2016-Jul-23 09:33N 40°12' E 014°01'1817.9
2016-Jul-23 08:33N 40°29' E 014°06'1817.9
2016-Jul-23 07:33N 40°46' E 014°15'5 4.4
2016-Jul-23 06:28N 40°50' E 014°16'0 0.0
2016-Jul-23 04:20N 40°50' E 014°16'3 3.4
2016-Jul-23 03:33N 40°48' E 014°17'1716.6
2016-Jul-23 02:33N 40°33' E 014°08'1818.0
2016-Jul-23 01:33N 40°15' E 014°02'1818.0
2016-Jul-23 00:33N 39°58' E 013°57'1818.1
2016-Jul-22 23:33N 39°40' E 013°52'1818.2
2016-Jul-22 22:33N 39°22' E 013°47'1818.2
2016-Jul-22 21:34N 39°04' E 013°42'1818.2
2016-Jul-22 20:33N 38°47' E 013°36'1818.4
2016-Jul-22 19:34N 38°29' E 013°31'1918.5
2016-Jul-22 18:34N 38°11' E 013°26'4 4.3
2016-Jul-22 17:32N 38°08' E 013°22'0 0.0
2016-Jul-22 16:32N 38°08' E 013°22'0 0.0
2016-Jul-22 15:29N 38°08' E 013°22'0 0.0
2016-Jul-22 14:32N 38°08' E 013°22'0 0.0
2016-Jul-22 13:26N 38°08' E 013°22'0 0.0
2016-Jul-22 12:29N 38°08' E 013°22'0 0.0
2016-Jul-22 11:29N 38°08' E 013°22'0 0.0
2016-Jul-22 10:32N 38°08' E 013°22'0 0.0
2016-Jul-22 09:33N 38°08' E 013°22'0 0.0
2016-Jul-22 08:33N 38°08' E 013°22'0 0.0
2016-Jul-22 07:33N 38°08' E 013°22'0 0.0
2016-Jul-22 05:33N 38°08' E 013°22'0 0.1
2016-Jul-22 04:33N 38°08' E 013°22'9 8.9
2016-Jul-22 03:33N 38°16' E 013°27'1817.8
2016-Jul-22 02:33N 38°33' E 013°31'1817.8
2016-Jul-22 01:33N 38°51' E 013°37'1817.9
2016-Jul-22 00:33N 39°08' E 013°42'1817.8
2016-Jul-21 23:33N 39°25' E 013°47'1817.8
2016-Jul-21 22:33N 39°43' E 013°53'1817.7
2016-Jul-21 21:34N 40°00' E 013°57'1817.8
2016-Jul-21 20:34N 40°17' E 014°03'1818.0
2016-Jul-21 19:34N 40°35' E 014°08'1616.4
2016-Jul-21 18:34N 40°50' E 014°17'1 0.7
2016-Jul-21 17:11N 40°50' E 014°16'0 0.0
2016-Jul-21 16:26N 40°50' E 014°16'0 0.0
2016-Jul-21 15:32N 40°50' E 014°16'0 0.0
2016-Jul-21 14:32N 40°50' E 014°16'0 0.0
2016-Jul-21 13:32N 40°50' E 014°16'0 0.0
2016-Jul-21 12:29N 40°50' E 014°16'0 0.0
2016-Jul-21 11:20N 40°50' E 014°16'0 0.0
2016-Jul-21 10:32N 40°50' E 014°16'0 0.0
2016-Jul-21 09:17N 40°50' E 014°16'0 0.0
2016-Jul-21 08:32N 40°50' E 014°16'0 0.0
2016-Jul-21 07:32N 40°50' E 014°16'0 0.0
2016-Jul-21 06:32N 40°50' E 014°16'6 1.9
2016-Jul-21 03:34N 40°45' E 014°14'1817.6
2016-Jul-21 02:34N 40°28' E 014°06'1817.6
2016-Jul-21 01:34N 40°11' E 014°01'1818.2
2016-Jul-21 00:34N 39°53' E 013°55'1818.0
2016-Jul-20 23:34N 39°36' E 013°50'2517.8
2016-Jul-20 22:10N 39°12' E 013°44'1118.1
2016-Jul-20 21:33N 39°01' E 013°41'1818.0
2016-Jul-20 20:33N 38°43' E 013°36'1817.6
2016-Jul-20 19:33N 38°26' E 013°31'1817.8
2016-Jul-20 18:33N 38°09' E 013°25'3 2.7
2016-Jul-20 17:28N 38°08' E 013°22'0 0.0
2016-Jul-20 16:28N 38°08' E 013°22'0 0.0
2016-Jul-20 15:31N 38°08' E 013°22'0 0.0
2016-Jul-20 14:31N 38°08' E 013°22'0 0.0
2016-Jul-20 13:28N 38°08' E 013°22'0 0.0
2016-Jul-20 12:28N 38°08' E 013°22'0 0.0
2016-Jul-20 11:31N 38°08' E 013°22'0 0.0
2016-Jul-20 10:31N 38°08' E 013°22'0 0.0
2016-Jul-20 09:31N 38°08' E 013°22'0 0.0
2016-Jul-20 08:31N 38°08' E 013°22'0 0.0
2016-Jul-20 07:31N 38°08' E 013°22'0 0.0
2016-Jul-20 06:31N 38°08' E 013°22'0 0.0
2016-Jul-20 05:31N 38°08' E 013°22'2 2.5
2016-Jul-20 04:33N 38°09' E 013°24'1615.7
2016-Jul-20 03:33N 38°25' E 013°29'1616.2
2016-Jul-20 02:33N 38°41' E 013°34'1615.8
2016-Jul-20 01:33N 38°56' E 013°38'1616.1
2016-Jul-20 00:34N 39°12' E 013°43'1616.2
2016-Jul-19 23:34N 39°27' E 013°48'1616.2
2016-Jul-19 22:33N 39°43' E 013°53'1716.6
2016-Jul-19 21:34N 39°59' E 013°57'1716.9
2016-Jul-19 20:34N 40°16' E 014°02'1717.0
2016-Jul-19 19:34N 40°32' E 014°07'1717.1
2016-Jul-19 18:33N 40°48' E 014°16'2 0.2
2016-Jul-19 08:03N 40°50' E 014°16'10 2.8
2016-Jul-19 04:33N 40°41' E 014°12'1616.2
2016-Jul-19 03:33N 40°26' E 014°05'1616.1
2016-Jul-19 02:33N 40°10' E 014°00'1615.8
2016-Jul-19 01:34N 39°55' E 013°56'1615.7
2016-Jul-19 00:33N 39°39' E 013°52'1615.6
2016-Jul-18 23:33N 39°24' E 013°47'4815.7
2016-Jul-18 20:31N 38°37' E 013°34'1616.4
2016-Jul-18 19:33N 38°22' E 013°30'1515.3
2016-Jul-18 18:33N 38°07' E 013°24'2 1.6
2016-Jul-18 17:32N 38°08' E 013°22'0 0.0
2016-Jul-18 16:32N 38°08' E 013°22'0 0.0
2016-Jul-18 15:32N 38°08' E 013°22'0 0.0
2016-Jul-18 14:32N 38°08' E 013°22'0 0.0
2016-Jul-18 13:32N 38°08' E 013°22'0 0.0
2016-Jul-18 12:32N 38°08' E 013°22'0 0.0
2016-Jul-18 11:32N 38°08' E 013°22'0 0.0
2016-Jul-18 10:32N 38°08' E 013°22'0 0.0
2016-Jul-18 09:32N 38°08' E 013°22'0 0.0
2016-Jul-18 08:32N 38°08' E 013°22'0 0.0
2016-Jul-18 07:32N 38°08' E 013°22'0 0.0
2016-Jul-18 06:32N 38°08' E 013°22'0 0.0
2016-Jul-18 05:32N 38°08' E 013°22'1 0.7
2016-Jul-18 04:33N 38°08' E 013°22'1212.2
2016-Jul-18 03:33N 38°19' E 013°27'1717.0
2016-Jul-18 02:33N 38°36' E 013°32'4117.0
2016-Jul-18 00:09N 39°16' E 013°44'6316.7
2016-Jul-17 20:24N 40°16' E 014°03'1517.2
2016-Jul-17 19:33N 40°31' E 014°07'1717.1
2016-Jul-17 18:33N 40°46' E 014°16'12 0.8
2016-Jul-17 04:33N 40°36' E 014°10'1615.9
2016-Jul-17 03:33N 40°21' E 014°04'10815.5
2016-Jul-16 20:33N 38°35' E 013°33'1110.8
2016-Jul-16 19:32N 38°24' E 013°30'1515.3
2016-Jul-16 18:33N 38°10' E 013°26'3 3.4
2016-Jul-16 17:33N 38°08' E 013°22'0 0.0
2016-Jul-16 16:30N 38°08' E 013°22'0 0.0
2016-Jul-16 15:33N 38°08' E 013°22'0 0.0
2016-Jul-16 14:19N 38°08' E 013°22'0 0.0
2016-Jul-16 13:25N 38°08' E 013°22'0 0.0
2016-Jul-16 12:25N 38°08' E 013°22'0 0.0
2016-Jul-16 11:25N 38°08' E 013°22'0 0.0
2016-Jul-16 10:28N 38°08' E 013°22'0 0.0
2016-Jul-16 09:25N 38°08' E 013°22'0 0.0
2016-Jul-16 08:31N 38°08' E 013°22'0 0.0
2016-Jul-16 07:31N 38°08' E 013°22'2 2.5
2016-Jul-16 06:33N 38°09' E 013°25'12615.3
2016-Jul-15 22:17N 40°15' E 013°43'1216.1
2016-Jul-15 21:33N 40°24' E 013°52'1313.0
2016-Jul-15 20:33N 40°35' E 014°02'1413.8
2016-Jul-15 19:33N 40°45' E 014°13'4 0.3
2016-Jul-15 05:33N 40°48' E 014°17'1616.1
2016-Jul-15 04:33N 40°33' E 014°09'  

Dump ship's entire track history